sensor_id;sensor_type;location;lat;lon;timestamp;P1;durP1;ratioP1;P2;durP2;ratioP2
11620;SDS011;5866;49.094;11.900;2024-03-29T00:00:39;31.03;;;29.30;;
11620;SDS011;5866;49.094;11.900;2024-03-29T00:03:07;27.27;;;25.63;;
11620;SDS011;5866;49.094;11.900;2024-03-29T00:05:32;52.23;;;49.33;;
11620;SDS011;5866;49.094;11.900;2024-03-29T00:07:58;45.27;;;42.73;;
11620;SDS011;5866;49.094;11.900;2024-03-29T00:10:24;47.00;;;44.30;;
11620;SDS011;5866;49.094;11.900;2024-03-29T00:12:50;55.00;;;51.97;;
11620;SDS011;5866;49.094;11.900;2024-03-29T00:15:16;39.97;;;37.67;;
11620;SDS011;5866;49.094;11.900;2024-03-29T00:17:43;58.30;;;55.20;;
11620;SDS011;5866;49.094;11.900;2024-03-29T00:20:10;42.37;;;40.03;;
11620;SDS011;5866;49.094;11.900;2024-03-29T00:22:37;58.03;;;55.00;;
11620;SDS011;5866;49.094;11.900;2024-03-29T00:25:03;23.57;;;22.23;;
11620;SDS011;5866;49.094;11.900;2024-03-29T00:27:29;32.27;;;30.47;;
11620;SDS011;5866;49.094;11.900;2024-03-29T00:29:54;23.10;;;21.73;;
11620;SDS011;5866;49.094;11.900;2024-03-29T00:32:20;27.10;;;25.47;;
11620;SDS011;5866;49.094;11.900;2024-03-29T00:34:48;29.90;;;28.20;;
11620;SDS011;5866;49.094;11.900;2024-03-29T00:37:16;28.17;;;26.53;;
11620;SDS011;5866;49.094;11.900;2024-03-29T00:39:42;26.57;;;24.77;;
11620;SDS011;5866;49.094;11.900;2024-03-29T00:42:08;35.30;;;33.37;;
11620;SDS011;5866;49.094;11.900;2024-03-29T00:44:34;44.30;;;41.70;;
11620;SDS011;5866;49.094;11.900;2024-03-29T00:47:00;104.47;;;98.37;;
11620;SDS011;5866;49.094;11.900;2024-03-29T00:49:26;42.30;;;39.97;;
11620;SDS011;5866;49.094;11.900;2024-03-29T00:51:52;66.17;;;62.63;;
11620;SDS011;5866;49.094;11.900;2024-03-29T00:54:19;49.10;;;46.50;;
11620;SDS011;5866;49.094;11.900;2024-03-29T00:56:45;71.27;;;67.57;;
11620;SDS011;5866;49.094;11.900;2024-03-29T00:59:11;52.47;;;49.63;;
11620;SDS011;5866;49.094;11.900;2024-03-29T01:01:36;69.63;;;65.93;;
11620;SDS011;5866;49.094;11.900;2024-03-29T01:04:02;55.77;;;52.77;;
11620;SDS011;5866;49.094;11.900;2024-03-29T01:06:28;37.50;;;35.47;;
11620;SDS011;5866;49.094;11.900;2024-03-29T01:08:54;49.80;;;47.00;;
11620;SDS011;5866;49.094;11.900;2024-03-29T01:11:21;82.97;;;78.37;;
11620;SDS011;5866;49.094;11.900;2024-03-29T01:13:47;80.23;;;75.83;;
11620;SDS011;5866;49.094;11.900;2024-03-29T01:16:13;71.27;;;66.97;;
11620;SDS011;5866;49.094;11.900;2024-03-29T01:18:39;102.47;;;96.83;;
11620;SDS011;5866;49.094;11.900;2024-03-29T01:21:04;162.57;;;153.40;;
11620;SDS011;5866;49.094;11.900;2024-03-29T01:23:30;153.53;;;145.03;;
11620;SDS011;5866;49.094;11.900;2024-03-29T01:25:56;139.90;;;131.87;;
11620;SDS011;5866;49.094;11.900;2024-03-29T01:28:23;115.03;;;108.90;;
11620;SDS011;5866;49.094;11.900;2024-03-29T01:30:52;121.23;;;114.67;;
11620;SDS011;5866;49.094;11.900;2024-03-29T01:33:18;159.93;;;151.40;;
11620;SDS011;5866;49.094;11.900;2024-03-29T01:35:43;101.60;;;95.93;;
11620;SDS011;5866;49.094;11.900;2024-03-29T01:38:09;87.73;;;83.13;;
11620;SDS011;5866;49.094;11.900;2024-03-29T01:40:35;71.50;;;67.63;;
11620;SDS011;5866;49.094;11.900;2024-03-29T01:43:01;62.07;;;58.73;;
11620;SDS011;5866;49.094;11.900;2024-03-29T01:45:28;39.53;;;37.20;;
11620;SDS011;5866;49.094;11.900;2024-03-29T01:47:56;38.13;;;35.80;;
11620;SDS011;5866;49.094;11.900;2024-03-29T01:50:22;32.33;;;30.47;;
11620;SDS011;5866;49.094;11.900;2024-03-29T01:52:49;30.10;;;28.20;;
11620;SDS011;5866;49.094;11.900;2024-03-29T01:55:17;18.53;;;17.23;;
11620;SDS011;5866;49.094;11.900;2024-03-29T01:57:44;20.93;;;19.73;;
11620;SDS011;5866;49.094;11.900;2024-03-29T02:00:11;33.97;;;32.00;;
11620;SDS011;5866;49.094;11.900;2024-03-29T02:02:40;24.63;;;23.13;;
11620;SDS011;5866;49.094;11.900;2024-03-29T02:05:06;31.87;;;29.97;;
11620;SDS011;5866;49.094;11.900;2024-03-29T02:07:33;18.23;;;17.17;;
11620;SDS011;5866;49.094;11.900;2024-03-29T02:10:01;23.37;;;22.00;;
11620;SDS011;5866;49.094;11.900;2024-03-29T02:12:28;18.23;;;17.17;;
11620;SDS011;5866;49.094;11.900;2024-03-29T02:14:55;20.83;;;19.60;;
11620;SDS011;5866;49.094;11.900;2024-03-29T02:17:23;22.47;;;21.00;;
11620;SDS011;5866;49.094;11.900;2024-03-29T02:19:51;34.27;;;32.13;;
11620;SDS011;5866;49.094;11.900;2024-03-29T02:22:18;38.10;;;35.90;;
11620;SDS011;5866;49.094;11.900;2024-03-29T02:24:49;25.47;;;23.97;;
11620;SDS011;5866;49.094;11.900;2024-03-29T02:27:17;22.70;;;21.33;;
11620;SDS011;5866;49.094;11.900;2024-03-29T02:29:44;24.33;;;22.80;;
11620;SDS011;5866;49.094;11.900;2024-03-29T02:32:10;23.93;;;22.47;;
11620;SDS011;5866;49.094;11.900;2024-03-29T02:34:37;25.47;;;24.03;;
11620;SDS011;5866;49.094;11.900;2024-03-29T02:37:04;32.77;;;30.90;;
11620;SDS011;5866;49.094;11.900;2024-03-29T02:39:31;32.67;;;30.87;;
11620;SDS011;5866;49.094;11.900;2024-03-29T02:41:59;30.70;;;28.90;;
11620;SDS011;5866;49.094;11.900;2024-03-29T02:44:26;24.23;;;22.77;;
11620;SDS011;5866;49.094;11.900;2024-03-29T02:46:52;54.73;;;51.77;;
11620;SDS011;5866;49.094;11.900;2024-03-29T02:49:18;23.40;;;21.97;;
11620;SDS011;5866;49.094;11.900;2024-03-29T02:51:45;28.90;;;27.20;;
11620;SDS011;5866;49.094;11.900;2024-03-29T02:54:10;45.53;;;42.97;;
11620;SDS011;5866;49.094;11.900;2024-03-29T02:56:37;21.90;;;20.33;;
11620;SDS011;5866;49.094;11.900;2024-03-29T02:59:04;15.73;;;14.50;;
11620;SDS011;5866;49.094;11.900;2024-03-29T03:01:31;20.20;;;18.87;;
11620;SDS011;5866;49.094;11.900;2024-03-29T03:03:56;40.27;;;37.90;;
11620;SDS011;5866;49.094;11.900;2024-03-29T03:06:23;42.17;;;39.97;;
11620;SDS011;5866;49.094;11.900;2024-03-29T03:08:49;21.23;;;19.83;;
11620;SDS011;5866;49.094;11.900;2024-03-29T03:11:45;54.03;;;50.97;;
11620;SDS011;5866;49.094;11.900;2024-03-29T03:14:12;104.37;;;98.90;;
11620;SDS011;5866;49.094;11.900;2024-03-29T03:16:39;263.10;;;248.93;;
11620;SDS011;5866;49.094;11.900;2024-03-29T03:19:05;382.50;;;362.07;;
11620;SDS011;5866;49.094;11.900;2024-03-29T03:21:31;394.40;;;372.67;;
11620;SDS011;5866;49.094;11.900;2024-03-29T03:23:57;323.97;;;306.00;;
11620;SDS011;5866;49.094;11.900;2024-03-29T03:26:24;320.87;;;303.43;;
11620;SDS011;5866;49.094;11.900;2024-03-29T03:28:49;377.77;;;357.53;;
11620;SDS011;5866;49.094;11.900;2024-03-29T03:31:18;361.40;;;341.97;;
11620;SDS011;5866;49.094;11.900;2024-03-29T03:33:44;313.67;;;297.53;;
11620;SDS011;5866;49.094;11.900;2024-03-29T03:36:11;300.47;;;284.40;;
11620;SDS011;5866;49.094;11.900;2024-03-29T03:38:37;313.97;;;297.00;;
11620;SDS011;5866;49.094;11.900;2024-03-29T03:41:04;308.27;;;291.80;;
11620;SDS011;5866;49.094;11.900;2024-03-29T03:43:30;290.90;;;275.53;;
11620;SDS011;5866;49.094;11.900;2024-03-29T03:46:00;234.63;;;222.70;;
11620;SDS011;5866;49.094;11.900;2024-03-29T03:48:27;222.43;;;211.27;;
11620;SDS011;5866;49.094;11.900;2024-03-29T03:50:54;223.10;;;212.00;;
11620;SDS011;5866;49.094;11.900;2024-03-29T03:53:20;235.23;;;223.43;;
11620;SDS011;5866;49.094;11.900;2024-03-29T03:55:47;229.23;;;217.57;;
11620;SDS011;5866;49.094;11.900;2024-03-29T03:58:13;193.87;;;184.13;;
11620;SDS011;5866;49.094;11.900;2024-03-29T04:00:40;215.17;;;204.40;;
11620;SDS011;5866;49.094;11.900;2024-03-29T04:03:05;90.33;;;85.60;;
11620;SDS011;5866;49.094;11.900;2024-03-29T04:05:36;96.90;;;91.60;;
11620;SDS011;5866;49.094;11.900;2024-03-29T04:08:02;75.10;;;70.97;;
11620;SDS011;5866;49.094;11.900;2024-03-29T04:10:29;54.83;;;51.87;;
11620;SDS011;5866;49.094;11.900;2024-03-29T04:12:55;121.30;;;115.03;;
11620;SDS011;5866;49.094;11.900;2024-03-29T04:15:21;56.07;;;53.10;;
11620;SDS011;5866;49.094;11.900;2024-03-29T04:17:47;72.17;;;68.23;;
11620;SDS011;5866;49.094;11.900;2024-03-29T04:20:14;64.97;;;61.47;;
11620;SDS011;5866;49.094;11.900;2024-03-29T04:22:41;120.00;;;113.93;;
11620;SDS011;5866;49.094;11.900;2024-03-29T04:25:09;63.80;;;60.30;;
11620;SDS011;5866;49.094;11.900;2024-03-29T04:27:34;28.97;;;27.37;;
11620;SDS011;5866;49.094;11.900;2024-03-29T04:30:01;42.70;;;40.27;;
11620;SDS011;5866;49.094;11.900;2024-03-29T04:32:28;120.87;;;114.60;;
11620;SDS011;5866;49.094;11.900;2024-03-29T04:34:54;204.63;;;193.97;;
11620;SDS011;5866;49.094;11.900;2024-03-29T04:37:20;168.30;;;159.00;;
11620;SDS011;5866;49.094;11.900;2024-03-29T04:39:48;147.70;;;139.87;;
11620;SDS011;5866;49.094;11.900;2024-03-29T04:42:15;93.93;;;88.90;;
11620;SDS011;5866;49.094;11.900;2024-03-29T04:44:42;68.50;;;64.80;;
11620;SDS011;5866;49.094;11.900;2024-03-29T04:47:08;78.30;;;73.97;;
11620;SDS011;5866;49.094;11.900;2024-03-29T04:49:35;134.47;;;127.33;;
11620;SDS011;5866;49.094;11.900;2024-03-29T04:52:03;214.27;;;202.93;;
11620;SDS011;5866;49.094;11.900;2024-03-29T04:54:30;160.30;;;151.97;;
11620;SDS011;5866;49.094;11.900;2024-03-29T04:56:59;180.73;;;171.37;;
11620;SDS011;5866;49.094;11.900;2024-03-29T04:59:26;256.50;;;243.33;;
11620;SDS011;5866;49.094;11.900;2024-03-29T05:01:54;195.07;;;184.97;;
11620;SDS011;5866;49.094;11.900;2024-03-29T05:04:22;240.80;;;228.50;;
11620;SDS011;5866;49.094;11.900;2024-03-29T05:06:51;324.70;;;307.17;;
11620;SDS011;5866;49.094;11.900;2024-03-29T05:09:18;330.37;;;313.03;;
11620;SDS011;5866;49.094;11.900;2024-03-29T05:11:45;249.60;;;236.70;;
11620;SDS011;5866;49.094;11.900;2024-03-29T05:14:14;293.63;;;278.33;;
11620;SDS011;5866;49.094;11.900;2024-03-29T05:16:42;252.80;;;239.43;;
11620;SDS011;5866;49.094;11.900;2024-03-29T05:19:08;305.57;;;289.27;;
11620;SDS011;5866;49.094;11.900;2024-03-29T05:21:35;205.03;;;194.30;;
11620;SDS011;5866;49.094;11.900;2024-03-29T05:24:02;69.40;;;65.50;;
11620;SDS011;5866;49.094;11.900;2024-03-29T05:26:28;117.87;;;111.57;;
11620;SDS011;5866;49.094;11.900;2024-03-29T05:28:56;135.63;;;126.90;;
11620;SDS011;5866;49.094;11.900;2024-03-29T05:31:24;60.27;;;57.00;;
11620;SDS011;5866;49.094;11.900;2024-03-29T05:33:52;40.03;;;37.70;;
11620;SDS011;5866;49.094;11.900;2024-03-29T05:36:19;31.07;;;29.37;;
11620;SDS011;5866;49.094;11.900;2024-03-29T05:38:46;40.93;;;38.70;;
11620;SDS011;5866;49.094;11.900;2024-03-29T05:41:13;55.77;;;52.83;;
11620;SDS011;5866;49.094;11.900;2024-03-29T05:43:39;50.70;;;48.00;;
11620;SDS011;5866;49.094;11.900;2024-03-29T05:46:06;37.70;;;35.70;;
11620;SDS011;5866;49.094;11.900;2024-03-29T05:48:34;34.90;;;33.10;;
11620;SDS011;5866;49.094;11.900;2024-03-29T05:51:01;51.23;;;48.53;;
11620;SDS011;5866;49.094;11.900;2024-03-29T05:53:27;28.07;;;26.57;;
11620;SDS011;5866;49.094;11.900;2024-03-29T05:55:54;27.03;;;25.53;;
11620;SDS011;5866;49.094;11.900;2024-03-29T05:58:21;20.30;;;19.20;;
11620;SDS011;5866;49.094;11.900;2024-03-29T06:00:48;26.53;;;25.13;;
11620;SDS011;5866;49.094;11.900;2024-03-29T06:03:14;19.20;;;18.10;;
11620;SDS011;5866;49.094;11.900;2024-03-29T06:05:42;32.90;;;31.20;;
11620;SDS011;5866;49.094;11.900;2024-03-29T06:08:09;34.73;;;32.90;;
11620;SDS011;5866;49.094;11.900;2024-03-29T06:10:35;35.03;;;33.13;;
11620;SDS011;5866;49.094;11.900;2024-03-29T06:13:02;34.07;;;32.23;;
11620;SDS011;5866;49.094;11.900;2024-03-29T06:15:35;47.97;;;45.37;;
11620;SDS011;5866;49.094;11.900;2024-03-29T06:18:20;71.73;;;67.97;;
11620;SDS011;5866;49.094;11.900;2024-03-29T06:20:48;26.27;;;24.87;;
11620;SDS011;5866;49.094;11.900;2024-03-29T06:23:15;29.47;;;27.93;;
11620;SDS011;5866;49.094;11.900;2024-03-29T06:25:42;40.75;;;38.55;;
11620;SDS011;5866;49.094;11.900;2024-03-29T06:28:10;25.23;;;23.83;;
11620;SDS011;5866;49.094;11.900;2024-03-29T06:30:36;20.17;;;19.02;;
11620;SDS011;5866;49.094;11.900;2024-03-29T06:33:03;10.73;;;10.13;;
11620;SDS011;5866;49.094;11.900;2024-03-29T06:35:30;6.55;;;6.05;;
11620;SDS011;5866;49.094;11.900;2024-03-29T06:37:58;8.00;;;7.50;;
11620;SDS011;5866;49.094;11.900;2024-03-29T06:40:25;11.27;;;10.57;;
11620;SDS011;5866;49.094;11.900;2024-03-29T06:42:52;23.13;;;21.92;;
11620;SDS011;5866;49.094;11.900;2024-03-29T06:45:21;24.73;;;23.33;;
11620;SDS011;5866;49.094;11.900;2024-03-29T06:47:48;13.90;;;13.00;;
11620;SDS011;5866;49.094;11.900;2024-03-29T06:50:15;22.83;;;21.63;;
11620;SDS011;5866;49.094;11.900;2024-03-29T06:52:41;13.10;;;12.30;;
11620;SDS011;5866;49.094;11.900;2024-03-29T06:55:10;5.20;;;4.82;;
11620;SDS011;5866;49.094;11.900;2024-03-29T06:57:37;4.97;;;4.57;;
11620;SDS011;5866;49.094;11.900;2024-03-29T07:00:04;6.87;;;6.43;;
11620;SDS011;5866;49.094;11.900;2024-03-29T07:02:31;7.17;;;6.77;;
11620;SDS011;5866;49.094;11.900;2024-03-29T07:04:58;6.07;;;5.63;;
11620;SDS011;5866;49.094;11.900;2024-03-29T07:07:30;4.70;;;4.40;;
11620;SDS011;5866;49.094;11.900;2024-03-29T07:09:57;4.80;;;4.50;;
11620;SDS011;5866;49.094;11.900;2024-03-29T07:12:25;5.23;;;4.83;;
11620;SDS011;5866;49.094;11.900;2024-03-29T07:14:51;5.70;;;5.30;;
11620;SDS011;5866;49.094;11.900;2024-03-29T07:17:18;5.03;;;4.73;;
11620;SDS011;5866;49.094;11.900;2024-03-29T07:19:45;7.83;;;7.33;;
11620;SDS011;5866;49.094;11.900;2024-03-29T07:22:11;5.47;;;5.07;;
11620;SDS011;5866;49.094;11.900;2024-03-29T07:24:38;5.03;;;4.63;;
11620;SDS011;5866;49.094;11.900;2024-03-29T07:27:05;5.40;;;5.00;;
11620;SDS011;5866;49.094;11.900;2024-03-29T07:29:32;6.10;;;5.63;;
11620;SDS011;5866;49.094;11.900;2024-03-29T07:32:00;6.10;;;5.70;;
11620;SDS011;5866;49.094;11.900;2024-03-29T07:34:26;7.17;;;6.70;;
11620;SDS011;5866;49.094;11.900;2024-03-29T07:36:53;5.80;;;5.40;;
11620;SDS011;5866;49.094;11.900;2024-03-29T07:39:20;5.17;;;4.67;;
11620;SDS011;5866;49.094;11.900;2024-03-29T07:41:48;19.17;;;17.90;;
11620;SDS011;5866;49.094;11.900;2024-03-29T07:44:14;7.53;;;6.83;;
11620;SDS011;5866;49.094;11.900;2024-03-29T07:46:42;9.43;;;8.87;;
11620;SDS011;5866;49.094;11.900;2024-03-29T07:49:11;5.65;;;5.25;;
11620;SDS011;5866;49.094;11.900;2024-03-29T07:51:38;17.48;;;16.52;;
11620;SDS011;5866;49.094;11.900;2024-03-29T07:54:04;28.25;;;26.65;;
11620;SDS011;5866;49.094;11.900;2024-03-29T07:56:31;23.02;;;21.77;;
11620;SDS011;5866;49.094;11.900;2024-03-29T07:58:57;19.98;;;18.88;;
11620;SDS011;5866;49.094;11.900;2024-03-29T08:01:24;19.88;;;18.77;;
11620;SDS011;5866;49.094;11.900;2024-03-29T08:03:52;20.05;;;18.95;;
11620;SDS011;5866;49.094;11.900;2024-03-29T08:06:19;18.35;;;17.35;;
11620;SDS011;5866;49.094;11.900;2024-03-29T08:08:48;18.33;;;17.33;;
11620;SDS011;5866;49.094;11.900;2024-03-29T08:11:15;15.10;;;14.30;;
11620;SDS011;5866;49.094;11.900;2024-03-29T08:13:41;14.70;;;13.80;;
11620;SDS011;5866;49.094;11.900;2024-03-29T08:16:08;13.57;;;12.68;;
11620;SDS011;5866;49.094;11.900;2024-03-29T08:18:36;14.43;;;13.52;;
11620;SDS011;5866;49.094;11.900;2024-03-29T08:21:04;20.27;;;19.08;;
11620;SDS011;5866;49.094;11.900;2024-03-29T08:23:36;17.23;;;16.23;;
11620;SDS011;5866;49.094;11.900;2024-03-29T08:26:04;28.88;;;27.35;;
11620;SDS011;5866;49.094;11.900;2024-03-29T08:28:31;18.98;;;17.95;;
11620;SDS011;5866;49.094;11.900;2024-03-29T08:30:57;3.72;;;3.42;;
11620;SDS011;5866;49.094;11.900;2024-03-29T08:33:25;3.50;;;3.20;;
11620;SDS011;5866;49.094;11.900;2024-03-29T08:35:52;3.33;;;3.13;;
11620;SDS011;5866;49.094;11.900;2024-03-29T08:38:20;5.78;;;5.32;;
11620;SDS011;5866;49.094;11.900;2024-03-29T08:40:47;3.70;;;3.40;;
11620;SDS011;5866;49.094;11.900;2024-03-29T08:43:13;9.23;;;8.63;;
11620;SDS011;5866;49.094;11.900;2024-03-29T08:45:41;7.15;;;6.75;;
11620;SDS011;5866;49.094;11.900;2024-03-29T08:48:07;3.53;;;3.22;;
11620;SDS011;5866;49.094;11.900;2024-03-29T08:50:34;5.00;;;4.55;;
11620;SDS011;5866;49.094;11.900;2024-03-29T08:53:01;3.40;;;3.20;;
11620;SDS011;5866;49.094;11.900;2024-03-29T08:55:29;4.32;;;4.03;;
11620;SDS011;5866;49.094;11.900;2024-03-29T08:57:56;4.43;;;4.13;;
11620;SDS011;5866;49.094;11.900;2024-03-29T09:00:24;3.08;;;2.88;;
11620;SDS011;5866;49.094;11.900;2024-03-29T09:02:50;3.53;;;3.22;;
11620;SDS011;5866;49.094;11.900;2024-03-29T09:05:17;3.88;;;3.58;;
11620;SDS011;5866;49.094;11.900;2024-03-29T09:07:44;3.67;;;3.35;;
11620;SDS011;5866;49.094;11.900;2024-03-29T09:10:11;4.47;;;4.18;;
11620;SDS011;5866;49.094;11.900;2024-03-29T09:12:39;5.00;;;4.60;;
11620;SDS011;5866;49.094;11.900;2024-03-29T09:15:06;4.35;;;4.05;;
11620;SDS011;5866;49.094;11.900;2024-03-29T09:17:38;4.90;;;4.40;;
11620;SDS011;5866;49.094;11.900;2024-03-29T09:20:05;7.88;;;7.38;;
11620;SDS011;5866;49.094;11.900;2024-03-29T09:22:32;9.98;;;9.13;;
11620;SDS011;5866;49.094;11.900;2024-03-29T09:24:59;8.43;;;7.93;;
11620;SDS011;5866;49.094;11.900;2024-03-29T09:27:26;7.40;;;6.90;;
11620;SDS011;5866;49.094;11.900;2024-03-29T09:29:55;6.20;;;5.78;;
11620;SDS011;5866;49.094;11.900;2024-03-29T09:32:22;5.07;;;4.68;;
11620;SDS011;5866;49.094;11.900;2024-03-29T09:34:49;5.32;;;4.93;;
11620;SDS011;5866;49.094;11.900;2024-03-29T09:37:15;4.00;;;3.63;;
11620;SDS011;5866;49.094;11.900;2024-03-29T09:39:43;5.38;;;4.93;;
11620;SDS011;5866;49.094;11.900;2024-03-29T09:42:09;21.10;;;19.90;;
11620;SDS011;5866;49.094;11.900;2024-03-29T09:44:43;22.08;;;20.77;;
11620;SDS011;5866;49.094;11.900;2024-03-29T09:47:14;15.52;;;14.63;;
11620;SDS011;5866;49.094;11.900;2024-03-29T09:49:43;17.65;;;16.58;;
11620;SDS011;5866;49.094;11.900;2024-03-29T09:52:12;16.67;;;15.55;;
11620;SDS011;5866;49.094;11.900;2024-03-29T09:54:40;10.95;;;10.15;;
11620;SDS011;5866;49.094;11.900;2024-03-29T09:57:06;14.50;;;13.48;;
11620;SDS011;5866;49.094;11.900;2024-03-29T09:59:34;17.00;;;15.90;;
11620;SDS011;5866;49.094;11.900;2024-03-29T10:02:03;16.63;;;15.63;;
11620;SDS011;5866;49.094;11.900;2024-03-29T10:04:36;22.55;;;21.17;;
11620;SDS011;5866;49.094;11.900;2024-03-29T10:07:04;13.85;;;13.05;;
11620;SDS011;5866;49.094;11.900;2024-03-29T10:09:30;16.40;;;15.30;;
11620;SDS011;5866;49.094;11.900;2024-03-29T10:11:58;13.82;;;13.02;;
11620;SDS011;5866;49.094;11.900;2024-03-29T10:14:25;18.98;;;17.88;;
11620;SDS011;5866;49.094;11.900;2024-03-29T10:16:52;12.70;;;11.90;;
11620;SDS011;5866;49.094;11.900;2024-03-29T10:19:19;15.07;;;14.18;;
11620;SDS011;5866;49.094;11.900;2024-03-29T10:21:48;12.15;;;11.32;;
11620;SDS011;5866;49.094;11.900;2024-03-29T10:24:15;8.77;;;8.18;;
11620;SDS011;5866;49.094;11.900;2024-03-29T10:26:43;7.53;;;7.03;;
11620;SDS011;5866;49.094;11.900;2024-03-29T10:29:09;7.97;;;7.47;;
11620;SDS011;5866;49.094;11.900;2024-03-29T10:31:36;10.45;;;9.68;;
11620;SDS011;5866;49.094;11.900;2024-03-29T10:34:03;5.03;;;4.63;;
11620;SDS011;5866;49.094;11.900;2024-03-29T10:36:30;4.10;;;3.80;;
11620;SDS011;5866;49.094;11.900;2024-03-29T10:39:02;3.58;;;3.28;;
11620;SDS011;5866;49.094;11.900;2024-03-29T10:41:37;4.65;;;4.35;;
11620;SDS011;5866;49.094;11.900;2024-03-29T10:44:06;6.07;;;5.57;;
11620;SDS011;5866;49.094;11.900;2024-03-29T10:46:37;4.43;;;4.07;;
11620;SDS011;5866;49.094;11.900;2024-03-29T10:49:04;5.72;;;5.22;;
11620;SDS011;5866;49.094;11.900;2024-03-29T10:51:35;3.75;;;3.35;;
11620;SDS011;5866;49.094;11.900;2024-03-29T10:54:05;3.97;;;3.67;;
11620;SDS011;5866;49.094;11.900;2024-03-29T10:56:34;4.32;;;3.50;;
11620;SDS011;5866;49.094;11.900;2024-03-29T10:59:04;3.25;;;2.97;;
11620;SDS011;5866;49.094;11.900;2024-03-29T11:01:36;2.90;;;2.70;;
11620;SDS011;5866;49.094;11.900;2024-03-29T11:04:09;4.05;;;3.75;;
11620;SDS011;5866;49.094;11.900;2024-03-29T11:06:42;3.70;;;3.45;;
11620;SDS011;5866;49.094;11.900;2024-03-29T11:09:14;3.42;;;3.20;;
11620;SDS011;5866;49.094;11.900;2024-03-29T11:11:44;3.55;;;3.35;;
11620;SDS011;5866;49.094;11.900;2024-03-29T11:14:16;3.55;;;3.25;;
11620;SDS011;5866;49.094;11.900;2024-03-29T11:16:46;3.55;;;3.35;;
11620;SDS011;5866;49.094;11.900;2024-03-29T11:19:16;4.10;;;3.80;;
11620;SDS011;5866;49.094;11.900;2024-03-29T11:21:43;4.20;;;3.90;;
11620;SDS011;5866;49.094;11.900;2024-03-29T11:24:15;3.90;;;3.60;;
11620;SDS011;5866;49.094;11.900;2024-03-29T11:26:44;5.03;;;4.63;;
11620;SDS011;5866;49.094;11.900;2024-03-29T11:29:17;4.88;;;4.47;;
11620;SDS011;5866;49.094;11.900;2024-03-29T11:31:45;3.70;;;3.40;;
11620;SDS011;5866;49.094;11.900;2024-03-29T11:34:12;3.40;;;3.20;;
11620;SDS011;5866;49.094;11.900;2024-03-29T11:36:39;3.97;;;3.70;;
11620;SDS011;5866;49.094;11.900;2024-03-29T11:39:06;3.92;;;3.72;;
11620;SDS011;5866;49.094;11.900;2024-03-29T11:41:34;3.80;;;3.50;;
11620;SDS011;5866;49.094;11.900;2024-03-29T11:44:01;4.15;;;3.85;;
11620;SDS011;5866;49.094;11.900;2024-03-29T11:46:28;4.38;;;3.88;;
11620;SDS011;5866;49.094;11.900;2024-03-29T11:48:58;3.72;;;3.53;;
11620;SDS011;5866;49.094;11.900;2024-03-29T11:51:25;3.53;;;3.33;;
11620;SDS011;5866;49.094;11.900;2024-03-29T11:53:53;3.53;;;3.22;;
11620;SDS011;5866;49.094;11.900;2024-03-29T11:56:20;3.72;;;3.42;;
11620;SDS011;5866;49.094;11.900;2024-03-29T11:58:48;3.70;;;3.45;;
11620;SDS011;5866;49.094;11.900;2024-03-29T12:01:15;3.67;;;3.38;;
11620;SDS011;5866;49.094;11.900;2024-03-29T12:03:42;3.17;;;2.97;;
11620;SDS011;5866;49.094;11.900;2024-03-29T12:06:09;3.10;;;2.90;;
11620;SDS011;5866;49.094;11.900;2024-03-29T12:08:37;3.17;;;2.97;;
11620;SDS011;5866;49.094;11.900;2024-03-29T12:11:06;3.15;;;2.95;;
11620;SDS011;5866;49.094;11.900;2024-03-29T12:13:33;2.88;;;2.67;;
11620;SDS011;5866;49.094;11.900;2024-03-29T12:16:01;3.00;;;2.80;;
11620;SDS011;5866;49.094;11.900;2024-03-29T12:18:28;3.35;;;3.08;;
11620;SDS011;5866;49.094;11.900;2024-03-29T12:20:57;3.25;;;3.05;;
11620;SDS011;5866;49.094;11.900;2024-03-29T12:23:24;3.22;;;3.03;;
11620;SDS011;5866;49.094;11.900;2024-03-29T12:25:53;3.15;;;2.95;;
11620;SDS011;5866;49.094;11.900;2024-03-29T12:28:20;3.42;;;3.22;;
11620;SDS011;5866;49.094;11.900;2024-03-29T12:30:48;3.95;;;3.67;;
11620;SDS011;5866;49.094;11.900;2024-03-29T12:33:16;3.60;;;3.30;;
11620;SDS011;5866;49.094;11.900;2024-03-29T12:35:45;3.58;;;3.38;;
11620;SDS011;5866;49.094;11.900;2024-03-29T12:38:14;3.67;;;3.47;;
11620;SDS011;5866;49.094;11.900;2024-03-29T12:40:43;4.55;;;3.63;;
11620;SDS011;5866;49.094;11.900;2024-03-29T12:43:13;3.97;;;3.72;;
11620;SDS011;5866;49.094;11.900;2024-03-29T12:45:42;3.60;;;3.35;;
11620;SDS011;5866;49.094;11.900;2024-03-29T12:48:10;3.20;;;3.00;;
11620;SDS011;5866;49.094;11.900;2024-03-29T12:50:39;3.10;;;2.80;;
11620;SDS011;5866;49.094;11.900;2024-03-29T12:53:07;2.92;;;2.72;;
11620;SDS011;5866;49.094;11.900;2024-03-29T12:55:35;3.72;;;3.42;;
11620;SDS011;5866;49.094;11.900;2024-03-29T12:58:04;3.20;;;2.92;;
11620;SDS011;5866;49.094;11.900;2024-03-29T13:00:34;4.03;;;2.83;;
11620;SDS011;5866;49.094;11.900;2024-03-29T13:03:01;3.40;;;3.20;;
11620;SDS011;5866;49.094;11.900;2024-03-29T13:05:28;3.30;;;3.00;;
11620;SDS011;5866;49.094;11.900;2024-03-29T13:08:00;3.20;;;3.00;;
11620;SDS011;5866;49.094;11.900;2024-03-29T13:10:28;3.53;;;3.22;;
11620;SDS011;5866;49.094;11.900;2024-03-29T13:12:55;3.45;;;3.15;;
11620;SDS011;5866;49.094;11.900;2024-03-29T13:15:22;3.85;;;3.53;;
11620;SDS011;5866;49.094;11.900;2024-03-29T13:17:50;4.05;;;3.75;;
11620;SDS011;5866;49.094;11.900;2024-03-29T13:20:18;3.90;;;3.60;;
11620;SDS011;5866;49.094;11.900;2024-03-29T13:22:45;3.30;;;3.10;;
11620;SDS011;5866;49.094;11.900;2024-03-29T13:25:15;3.67;;;3.47;;
11620;SDS011;5866;49.094;11.900;2024-03-29T13:27:44;3.38;;;3.17;;
11620;SDS011;5866;49.094;11.900;2024-03-29T13:30:12;4.97;;;3.35;;
11620;SDS011;5866;49.094;11.900;2024-03-29T13:32:39;3.30;;;3.10;;
11620;SDS011;5866;49.094;11.900;2024-03-29T13:35:07;3.15;;;2.95;;
11620;SDS011;5866;49.094;11.900;2024-03-29T13:37:36;4.78;;;3.50;;
11620;SDS011;5866;49.094;11.900;2024-03-29T13:40:04;2.90;;;2.70;;
11620;SDS011;5866;49.094;11.900;2024-03-29T13:42:33;3.10;;;2.90;;
11620;SDS011;5866;49.094;11.900;2024-03-29T13:45:00;3.35;;;3.13;;
11620;SDS011;5866;49.094;11.900;2024-03-29T13:47:27;2.97;;;2.78;;
11620;SDS011;5866;49.094;11.900;2024-03-29T13:49:53;3.08;;;2.85;;
11620;SDS011;5866;49.094;11.900;2024-03-29T13:52:22;3.22;;;3.03;;
11620;SDS011;5866;49.094;11.900;2024-03-29T13:54:49;3.15;;;2.95;;
11620;SDS011;5866;49.094;11.900;2024-03-29T13:57:16;3.35;;;3.08;;
11620;SDS011;5866;49.094;11.900;2024-03-29T13:59:44;3.85;;;3.22;;
11620;SDS011;5866;49.094;11.900;2024-03-29T14:02:12;3.72;;;3.53;;
11620;SDS011;5866;49.094;11.900;2024-03-29T14:04:40;3.42;;;3.22;;
11620;SDS011;5866;49.094;11.900;2024-03-29T14:07:07;3.70;;;3.40;;
11620;SDS011;5866;49.094;11.900;2024-03-29T14:09:36;3.00;;;2.80;;
11620;SDS011;5866;49.094;11.900;2024-03-29T14:12:02;2.97;;;2.78;;
11620;SDS011;5866;49.094;11.900;2024-03-29T14:14:30;3.50;;;3.30;;
11620;SDS011;5866;49.094;11.900;2024-03-29T14:16:58;3.22;;;3.03;;
11620;SDS011;5866;49.094;11.900;2024-03-29T14:19:29;3.08;;;2.88;;
11620;SDS011;5866;49.094;11.900;2024-03-29T14:21:56;3.03;;;2.83;;
11620;SDS011;5866;49.094;11.900;2024-03-29T14:24:22;3.05;;;2.85;;
11620;SDS011;5866;49.094;11.900;2024-03-29T14:26:50;3.15;;;2.95;;
11620;SDS011;5866;49.094;11.900;2024-03-29T14:29:17;3.55;;;3.22;;